Last 30 Days

OV-Siberia 8700'

Daily Data | America/Los_Angeles
as of 6/27/22 5:04 PM PDT
Date Daily Max Temp (°F) Time of Max Temp Daily Min Temp (°F) Time of Min Temp Wind Spd (mph) Daily Max Wind (mph) Time of Max Wind Max Wind Dir (°) Wet Bulb (°F) WetB Hrs <28F (hrs)
6/26/22 69.8 1549 54.6 0122 13.2 40.4 1734 NW | 305 46.8 0.0
6/25/22 68.6 1326 53.0 0557 9.5 31.3 0549 E | 86 45.9 0.0
6/24/22 66.4 1550 50.2 0548 9.5 31.5 1647 WNW | 302 44.5 0.0
6/23/22 59.1 1045 46.1 1724 12.1 32.5 0244 NW | 317 44.2 0.0
6/22/22 68.0 1230 49.7 2155 16.4 32.5 0247 E | 97 43.1 0.0
6/21/22 60.6 1746 42.1 0520 21.1 45.1 0005 ESE | 109 38.6 0.0
6/20/22 54.6 1654 34.6 0543 16.4 49.4 2314 E | 96 36.6 0.0
6/19/22 48.7 1447 26.6 0546 15.6 34.3 1520 SW | 233 33.8 4.2
6/18/22 40.4 1525 24.8 0348 17.7 58.4 0042 WNW | 284 28.2 12.0
6/17/22 40.8 0024 26.4 2250 38.3 78.5 0429 S | 184 28.1 12.8
6/16/22 55.7 1520 40.5 2359 48.8 83.1 1131 SW | 234 38.5 0.0
6/15/22 64.5 1446 42.5 0119 17.1 46.1 2345 SSW | 199 40.9 0.0
6/14/22 55.5 1620 32.1 0103 13.3 34.4 1440 WSW | 245 34.3 2.3
6/13/22 46.1 1709 30.5 0610 18.0 45.0 0029 SW | 219 34.2 0.2
6/12/22 49.8 0041 35.5 2353 51.7 107.3 0932 S | 190 42.2 0.0
6/11/22 62.4 1509 49.3 2356 30.7 57.0 2342 S | 179 46.2 0.0
6/10/22 67.5 1518 52.0 2324 21.3 49.2 1849 S | 181 45.8 0.0
6/9/22 66.0 1413 52.5 0248 8.7 33.6 1546 SSW | 196 46.8 0.0
6/8/22 59.0 1437 48.7 0234 21.1 48.9 1323 SW | 230 40.5 0.0
6/7/22 61.1 1413 47.7 0335 12.8 31.8 1426 SW | 217 37.6 0.0
6/6/22 54.6 1526 34.9 0110 20.8 41.6 0014 SW | 224 36.3 0.0
6/5/22 44.2 1425 36.0 0158 41.2 77.9 0253 S | 180 40.0 0.0
6/4/22 39.4 0017 31.4 0817 34.1 63.0 0210 SSW | 207 34.9 0.0
6/3/22 49.6 1311 39.1 2359 31.3 64.5 1445 SSE | 162 39.0 0.0
6/2/22 55.8 1503 41.6 2347 21.9 45.1 1307 SSE | 164 39.1 0.0
6/1/22 58.3 1440 40.5 0200 12.2 36.9 1640 SSW | 209 37.9 0.0
5/31/22 46.3 1845 26.2 0542 22.6 60.5 0911 ENE | 66 30.2 8.9
5/30/22 42.3 1343 28.4 2234 13.9 35.7 2138 ESE | 118 30.4 8.2
5/29/22 40.8 1514 25.4 0841 18.9 62.3 0042 SSW | 201 30.7 5.5
5/28/22 36.7 1255 28.8 0441 41.3 87.6 1600 S | 188 32.8 0.0
Max 69.8 - 54.6 - 51.7 107.3 - - 46.8 12.8
Avg - - - - 22.4 - - - 38.3 -
Min 36.7 - 24.8 - 8.7 31.3 - - 28.1 0.0